Time;durP1;ratioP1;P1;durP2;ratioP2;P2;SDS_P1;SDS_P2;PMS_P1;PMS_P2;Temp;Humidity;BMP_temperature;BMP_pressure;BME280_temperature;BME280_humidity;BME280_pressure;Samples;Min_cycle;Max_cycle;Signal;HPM_P1;HPM_P2
2021/12/22 01:51:41;;;;;;;159.52;60.13;;;;;;;1.96;100.00;94861.16;5359519;22;20982;-83
2021/12/22 01:54:19;;;;;;;166.57;60.22;;;;;;;2.15;100.00;94858.75;5042312;28;20076;-83
2021/12/22 01:56:45;;;;;;;160.70;60.55;;;;;;;1.61;100.00;94861.38;5055640;28;20051;-83
2021/12/22 01:59:12;;;;;;;172.75;63.50;;;;;;;1.60;100.00;94865.75;5049702;28;20047;-83
2021/12/22 02:01:38;;;;;;;171.15;62.35;;;;;;;1.82;100.00;94874.09;5078347;28;20432;-83
2021/12/22 02:04:06;;;;;;;158.68;59.55;;;;;;;1.89;100.00;94874.09;5055239;28;20447;-83
2021/12/22 02:06:31;;;;;;;172.77;61.50;;;;;;;1.66;100.00;94864.97;5035982;28;20350;-83
2021/12/22 02:08:59;;;;;;;179.45;65.30;;;;;;;1.58;100.00;94862.56;5044446;28;20024;-83
2021/12/22 02:11:25;;;;;;;190.57;63.45;;;;;;;1.41;100.00;94862.16;5060534;28;20050;-83
2021/12/22 02:14:03;;;;;;;184.77;64.75;;;;;;;1.33;100.00;94860.53;5060654;28;20051;-83
2021/12/22 02:16:32;;;;;;;178.60;64.78;;;;;;;1.44;100.00;94856.59;5062592;28;20055;-83
2021/12/22 02:18:59;;;;;;;196.70;66.32;;;;;;;1.23;100.00;94857.56;5044734;28;20425;-83
2021/12/22 02:21:28;;;;;;;211.18;68.28;;;;;;;1.19;100.00;94859.75;5043829;28;20455;-83
2021/12/22 02:23:54;;;;;;;214.35;72.07;;;;;;;1.15;100.00;94858.56;5061168;28;20029;-83
2021/12/22 02:26:26;;;;;;;218.25;73.93;;;;;;;1.25;100.00;94858.94;5044140;28;20392;-83
2021/12/22 02:29:05;;;;;;;187.32;67.32;;;;;;;1.67;100.00;94860.56;5045049;28;20421;-83
2021/12/22 02:31:38;;;;;;;199.02;67.45;;;;;;;1.55;100.00;94853.41;5045505;28;20032;-83
2021/12/22 02:34:05;;;;;;;179.63;63.83;;;;;;;1.69;100.00;94854.22;5044870;28;20028;-83
2021/12/22 02:36:37;;;;;;;168.73;61.05;;;;;;;1.74;100.00;94840.72;5044034;28;20035;-83
2021/12/22 02:39:04;;;;;;;174.63;63.50;;;;;;;1.78;100.00;94847.06;5044919;28;20036;-83
2021/12/22 02:41:30;;;;;;;147.32;56.08;;;;;;;1.85;100.00;94852.22;5043622;28;20297;-83
2021/12/22 02:43:58;;;;;;;165.38;61.20;;;;;;;1.81;100.00;94846.66;5060339;28;20392;-83
2021/12/22 02:46:35;;;;;;;165.85;60.25;;;;;;;1.74;100.00;94855.41;5043786;28;20028;-83
2021/12/22 02:49:03;;;;;;;157.07;60.15;;;;;;;2.02;100.00;94841.47;5043732;28;20028;-83
2021/12/22 02:51:29;;;;;;;155.23;58.20;;;;;;;1.70;100.00;94849.84;5059674;28;20425;-83
2021/12/22 02:54:09;;;;;;;183.95;64.82;;;;;;;1.50;100.00;94852.41;5043614;28;20035;-83
2021/12/22 03:06:37;;;;;;;168.35;61.20;;;;;;;1.54;100.00;94862.16;5060063;28;20036;-83
2021/12/22 03:09:24;;;;;;;162.90;60.78;;;;;;;1.48;100.00;94862.16;5061316;28;20066;-83
2021/12/22 03:11:51;;;;;;;152.48;59.55;;;;;;;1.47;100.00;94861.38;5059255;28;20424;-83
2021/12/22 03:14:18;;;;;;;159.75;60.45;;;;;;;1.57;100.00;94865.34;5043203;28;20028;-83
2021/12/22 03:16:44;;;;;;;153.68;57.90;;;;;;;1.80;100.00;94860.56;5042875;28;20036;-83
2021/12/22 03:19:11;;;;;;;165.50;57.97;;;;;;;1.63;100.00;94862.75;5043102;28;20025;-83
2021/12/22 03:21:38;;;;;;;164.10;57.33;;;;;;;1.64;100.00;94866.16;5059154;28;20032;-83
2021/12/22 03:24:04;;;;;;;169.40;60.33;;;;;;;1.71;100.00;94860.97;5043057;28;20055;-83
2021/12/22 03:26:29;;;;;;;169.05;60.70;;;;;;;1.49;100.00;94869.72;5077203;28;20103;-83
2021/12/22 03:28:55;;;;;;;171.82;61.17;;;;;;;1.44;100.00;94872.09;5059393;28;20078;-83
2021/12/22 03:31:21;;;;;;;180.90;64.65;;;;;;;1.48;100.00;94867.31;5042548;28;20031;-83
2021/12/22 03:33:46;;;;;;;169.00;62.17;;;;;;;1.42;100.00;94871.47;5059344;28;20078;-83
2021/12/22 03:36:12;;;;;;;179.00;63.53;;;;;;;1.33;100.00;94881.19;5042792;28;20046;-83
2021/12/22 03:38:37;;;;;;;173.35;61.03;;;;;;;1.40;100.00;94869.09;5042844;28;20036;-83
2021/12/22 03:41:05;;;;;;;172.40;62.92;;;;;;;1.66;100.00;94875.28;5042397;28;20052;-83
2021/12/22 03:43:31;;;;;;;177.77;65.13;;;;;;;1.43;100.00;94870.47;5059099;28;20355;-83
2021/12/22 03:45:57;;;;;;;176.48;62.95;;;;;;;1.38;100.00;94873.69;5058711;28;20035;-83
2021/12/22 03:48:24;;;;;;;169.00;61.97;;;;;;;1.62;100.00;94875.88;5042753;28;20032;-83
2021/12/22 03:50:51;;;;;;;168.50;61.08;;;;;;;1.57;100.00;94875.66;5059332;28;20031;-83
2021/12/22 03:53:16;;;;;;;172.45;60.85;;;;;;;1.66;100.00;94872.72;5058516;28;20127;-83
2021/12/22 03:55:42;;;;;;;164.60;59.17;;;;;;;1.90;100.00;94874.88;5058774;28;20127;-83
2021/12/22 03:58:07;;;;;;;149.38;56.17;;;;;;;1.76;100.00;94869.72;5058879;28;20341;-83
2021/12/22 04:00:35;;;;;;;131.43;53.92;;;;;;;1.96;100.00;94867.13;5076754;28;20483;-83
2021/12/22 04:03:02;;;;;;;141.73;55.75;;;;;;;2.11;100.00;94876.47;5051799;28;20449;-83
2021/12/22 04:05:28;;;;;;;156.15;54.35;;;;;;;1.89;100.00;94868.13;5027384;28;20028;-83
2021/12/22 04:07:55;;;;;;;144.63;56.03;;;;;;;1.81;100.00;94871.72;5041910;28;20096;-83
2021/12/22 04:10:22;;;;;;;142.45;55.83;;;;;;;1.77;100.00;94868.72;5023060;28;20035;-83
2021/12/22 04:12:53;;;;;;;132.93;52.83;;;;;;;1.97;100.00;94880.84;5038488;28;20075;-83
2021/12/22 04:15:20;;;;;;;136.85;52.15;;;;;;;2.18;100.00;94874.66;5032921;28;20128;-83
2021/12/22 04:17:45;;;;;;;140.13;52.10;;;;;;;2.24;100.00;94867.88;5042153;28;20063;-83
2021/12/22 04:20:11;;;;;;;135.52;52.20;;;;;;;1.90;100.00;94875.66;5042210;28;20071;-83
2021/12/22 04:22:37;;;;;;;152.60;56.08;;;;;;;1.69;100.00;94880.06;5042026;28;20032;-83
2021/12/22 04:25:05;;;;;;;145.40;54.95;;;;;;;1.71;100.00;94882.44;5058754;28;20043;-83
2021/12/22 04:27:31;;;;;;;136.75;52.90;;;;;;;1.96;100.00;94884.41;5058739;28;20029;-83
2021/12/22 04:29:56;;;;;;;132.43;50.78;;;;;;;2.08;100.00;94890.56;5042180;28;20055;-83
2021/12/22 04:32:22;;;;;;;131.02;51.60;;;;;;;2.15;100.00;94887.97;5041724;28;20121;-83
2021/12/22 04:34:48;;;;;;;128.98;50.22;;;;;;;1.84;100.00;94890.19;5042251;28;20032;-83
2021/12/22 04:37:13;;;;;;;146.65;54.28;;;;;;;1.49;100.00;94892.16;5058551;28;20036;-83
2021/12/22 04:39:39;;;;;;;142.20;53.28;;;;;;;1.82;100.00;94893.97;5058525;28;20040;-83
2021/12/22 04:42:04;;;;;;;152.50;56.40;;;;;;;1.60;100.00;94893.38;5057830;28;20032;-83
2021/12/22 04:44:30;;;;;;;146.40;54.90;;;;;;;1.45;100.00;94889.19;5058445;28;20111;-83
2021/12/22 04:46:55;;;;;;;144.18;53.20;;;;;;;1.68;100.00;94893.16;5058655;28;20029;-83
2021/12/22 04:49:21;;;;;;;136.20;53.42;;;;;;;1.68;100.00;94898.31;5058456;28;20082;-83
2021/12/22 04:51:52;;;;;;;145.98;55.35;;;;;;;1.39;100.00;94893.34;5074898;28;20028;-83
2021/12/22 04:54:30;;;;;;;167.98;57.80;;;;;;;1.25;100.00;94900.25;5078506;28;20337;-83
2021/12/22 04:56:57;;;;;;;173.48;62.70;;;;;;;1.16;100.00;94900.63;5080308;28;20024;-83
2021/12/22 04:59:23;;;;;;;202.07;66.97;;;;;;;1.04;100.00;94897.81;5064787;28;20024;-83
2021/12/22 05:01:51;;;;;;;190.52;67.32;;;;;;;0.94;100.00;94904.13;5082056;28;20024;-83
2021/12/22 05:04:16;;;;;;;202.65;68.65;;;;;;;0.91;100.00;94907.09;5082243;28;20122;-83
2021/12/22 05:06:42;;;;;;;209.70;71.75;;;;;;;0.97;100.00;94903.75;5065638;28;20059;-83
2021/12/22 05:09:07;;;;;;;211.63;69.70;;;;;;;0.98;100.00;94901.97;5082010;28;20027;-83
2021/12/22 05:11:34;;;;;;;223.45;71.65;;;;;;;0.96;100.00;94909.91;5081636;28;20055;-83
2021/12/22 05:14:02;;;;;;;235.55;73.80;;;;;;;0.94;100.00;94908.50;5065563;28;20079;-83
2021/12/22 05:16:28;;;;;;;218.35;70.35;;;;;;;0.91;100.00;94911.47;5082165;28;20035;-83
2021/12/22 05:19:11;;;;;;;214.70;72.20;;;;;;;0.92;100.00;94911.28;5099984;28;20027;-83
2021/12/22 05:21:37;;;;;;;;;;;;;;;0.97;100.00;94913.28;5084609;28;20027;-83
2021/12/22 05:24:02;;;;;;;212.57;65.97;;;;;;;0.96;100.00;94920.22;5081776;28;19912;-84
2021/12/22 05:26:29;;;;;;;211.95;68.53;;;;;;;0.91;100.00;94917.44;5065238;28;20020;-84
2021/12/22 05:28:57;;;;;;;213.65;69.45;;;;;;;0.95;100.00;94920.44;5081662;28;20344;-84
2021/12/22 05:31:23;;;;;;;194.93;65.72;;;;;;;1.07;100.00;94916.28;5065015;28;20424;-83
2021/12/22 05:33:49;;;;;;;200.23;65.30;;;;;;;1.18;100.00;94919.28;5081657;28;20486;-83
2021/12/22 05:36:15;;;;;;;183.45;63.85;;;;;;;1.34;100.00;94918.94;5065097;28;20028;-83
2021/12/22 05:38:40;;;;;;;180.45;63.10;;;;;;;1.45;100.00;94922.75;5081557;28;20063;-83
2021/12/22 05:41:06;;;;;;;164.52;58.03;;;;;;;1.53;100.00;94921.78;5081123;28;20432;-83
2021/12/22 05:43:32;;;;;;;158.40;60.72;;;;;;;1.53;100.00;94925.13;5081540;28;20020;-83
2021/12/22 05:45:57;;;;;;;157.65;57.55;;;;;;;1.55;100.00;94920.56;5081434;28;20378;-83
2021/12/22 05:48:23;;;;;;;159.70;57.75;;;;;;;1.87;100.00;94932.16;5081416;28;20107;-83
2021/12/22 05:50:51;;;;;;;154.70;55.95;;;;;;;1.95;100.00;94921.59;5099447;28;20408;-83
2021/12/22 05:53:17;;;;;;;132.35;53.10;;;;;;;1.92;100.00;94929.75;5081102;28;20024;-84
2021/12/22 05:55:43;;;;;;;128.77;49.40;;;;;;;1.87;100.00;94924.41;5078971;28;20321;-84
2021/12/22 05:58:09;;;;;;;134.13;51.60;;;;;;;1.83;100.00;94922.19;5049869;28;20028;-84
2021/12/22 06:00:34;;;;;;;133.63;50.20;;;;;;;1.77;100.00;94917.81;5041826;28;20025;-84
2021/12/22 06:03:00;;;;;;;128.20;51.20;;;;;;;1.90;100.00;94924.00;5024561;28;20410;-83
2021/12/22 06:05:25;;;;;;;140.32;51.15;;;;;;;1.93;100.00;94923.59;5024532;28;20136;-83
2021/12/22 06:07:51;;;;;;;133.20;51.80;;;;;;;2.05;100.00;94926.38;5024731;28;20413;-84
2021/12/22 06:10:16;;;;;;;131.90;51.55;;;;;;;1.94;100.00;94922.59;5040608;28;20564;-83
2021/12/22 06:12:42;;;;;;;132.68;50.83;;;;;;;1.77;100.00;94923.00;5040311;28;20028;-84
2021/12/22 06:15:08;;;;;;;140.63;51.28;;;;;;;1.78;100.00;94926.34;5058472;28;20025;-83
2021/12/22 06:17:33;;;;;;;139.75;52.15;;;;;;;1.86;100.00;94927.94;5058717;28;20424;-84
2021/12/22 06:20:03;;;;;;;136.70;51.75;;;;;;;1.71;100.00;94926.34;5040574;28;20075;-84
2021/12/22 06:22:30;;;;;;;134.43;52.50;;;;;;;1.53;100.00;94927.72;5040518;28;20377;-84
2021/12/22 06:24:56;;;;;;;149.02;54.30;;;;;;;1.38;100.00;94932.25;5040976;28;20025;-83
2021/12/22 06:27:22;;;;;;;162.93;56.30;;;;;;;1.21;100.00;94929.22;5024335;28;20072;-83
2021/12/22 06:29:47;;;;;;;159.70;57.65;;;;;;;1.20;100.00;94932.81;5057691;28;20025;-83
2021/12/22 06:32:13;;;;;;;141.75;52.75;;;;;;;1.60;100.00;94932.13;5077922;28;20032;-84
2021/12/22 06:34:38;;;;;;;150.20;53.78;;;;;;;1.83;100.00;94940.28;5044053;28;20078;-84
2021/12/22 06:37:04;;;;;;;131.15;49.63;;;;;;;1.89;100.00;94938.69;5060366;28;20369;-83
2021/12/22 06:39:29;;;;;;;128.70;50.00;;;;;;;1.71;100.00;94938.47;5043813;28;20035;-83
2021/12/22 06:41:55;;;;;;;144.10;52.65;;;;;;;1.47;100.00;94938.03;5059779;28;20028;-84
2021/12/22 06:44:23;;;;;;;134.45;52.47;;;;;;;1.70;100.00;94942.84;5059947;28;20028;-84
2021/12/22 06:46:49;;;;;;;130.13;49.10;;;;;;;1.95;100.00;94950.84;5060590;28;20017;-84
2021/12/22 06:49:15;;;;;;;132.38;51.72;;;;;;;1.92;100.00;94945.25;5060169;28;20116;-84
2021/12/22 06:51:41;;;;;;;132.75;51.20;;;;;;;1.80;100.00;94951.00;5059600;28;20111;-84
2021/12/22 06:54:06;;;;;;;127.85;49.80;;;;;;;1.88;100.00;94957.78;5059971;28;20020;-84
2021/12/22 06:56:32;;;;;;;135.45;48.58;;;;;;;1.79;100.00;94953.78;5059995;28;20028;-83
2021/12/22 06:58:59;;;;;;;143.73;51.58;;;;;;;1.68;100.00;94960.31;5059961;28;20025;-84
2021/12/22 07:01:25;;;;;;;131.98;50.95;;;;;;;1.85;100.00;94958.16;5043163;28;20332;-83
2021/12/22 07:03:50;;;;;;;132.85;51.35;;;;;;;1.93;100.00;94967.53;5058673;28;20531;-84
2021/12/22 07:06:16;;;;;;;135.02;50.83;;;;;;;1.91;100.00;94969.50;5037272;28;20123;-83
2021/12/22 07:08:42;;;;;;;135.57;49.75;;;;;;;1.60;100.00;94971.63;5059254;28;20391;-84
2021/12/22 07:11:08;;;;;;;137.57;50.58;;;;;;;1.94;100.00;94980.25;5056474;28;20082;-83
2021/12/22 07:13:33;;;;;;;149.88;54.45;;;;;;;1.66;100.00;94976.03;5040619;28;20380;-83
2021/12/22 07:15:59;;;;;;;143.85;54.75;;;;;;;1.47;100.00;94990.50;5059566;28;20051;-83
2021/12/22 07:18:24;;;;;;;150.25;55.95;;;;;;;1.27;100.00;94993.78;5059281;28;20314;-84
2021/12/22 07:20:50;;;;;;;156.10;58.67;;;;;;;1.11;100.00;94999.28;5042238;28;20021;-84
2021/12/22 07:23:16;;;;;;;169.80;60.95;;;;;;;1.17;100.00;95000.31;5058769;28;20086;-84
2021/12/22 07:25:41;;;;;;;199.55;63.25;;;;;;;1.10;100.00;94997.69;5042839;28;20025;-84
2021/12/22 07:28:10;;;;;;;170.38;61.03;;;;;;;1.18;100.00;94997.53;5043065;28;20028;-84
2021/12/22 07:30:38;;;;;;;155.25;58.33;;;;;;;1.30;100.00;95005.53;5043328;28;20332;-84
2021/12/22 07:33:04;;;;;;;162.95;59.38;;;;;;;1.47;100.00;95008.56;5058702;28;20443;-84
2021/12/22 07:35:32;;;;;;;157.23;57.85;;;;;;;1.47;100.00;95012.94;5059068;28;20025;-84
2021/12/22 07:38:06;;;;;;;158.15;57.95;;;;;;;1.37;100.00;95013.28;5076995;28;20425;-84
2021/12/22 07:40:32;;;;;;;146.18;55.40;;;;;;;1.60;100.00;95017.34;5059162;28;20054;-84
2021/12/22 07:42:57;;;;;;;147.55;56.17;;;;;;;1.85;100.00;95020.19;5042354;28;20123;-84
2021/12/22 07:45:23;;;;;;;143.75;53.10;;;;;;;1.84;100.00;95024.53;5058890;28;20437;-84
2021/12/22 07:47:48;;;;;;;133.35;51.03;;;;;;;2.15;100.00;95031.94;5058905;28;20024;-84
2021/12/22 07:50:14;;;;;;;138.32;53.83;;;;;;;1.75;100.00;95037.84;5058840;28;20029;-84
2021/12/22 07:52:39;;;;;;;135.05;52.83;;;;;;;1.74;100.00;95038.84;5058054;28;20036;-84
2021/12/22 07:55:05;;;;;;;130.15;52.60;;;;;;;2.00;100.00;95032.91;5076502;28;20083;-84
2021/12/22 07:57:30;;;;;;;133.07;52.17;;;;;;;2.17;100.00;95037.75;5042104;28;20029;-84
2021/12/22 07:59:56;;;;;;;133.90;51.88;;;;;;;2.16;100.00;95036.16;5042346;28;20028;-84
2021/12/22 08:02:21;;;;;;;132.18;51.85;;;;;;;2.09;100.00;95043.91;5058216;28;20043;-84
2021/12/22 08:04:47;;;;;;;126.97;50.75;;;;;;;1.96;100.00;95045.47;5058529;28;20476;-83
2021/12/22 08:07:12;;;;;;;136.85;51.35;;;;;;;2.14;100.00;95046.69;5042121;28;20444;-84
2021/12/22 08:09:38;;;;;;;130.00;50.05;;;;;;;2.32;100.00;95043.53;5058628;28;20389;-84
2021/12/22 08:12:04;;;;;;;134.45;52.85;;;;;;;2.08;100.00;95047.44;5058109;28;20035;-84
2021/12/22 08:14:39;;;;;;;124.68;49.03;;;;;;;2.34;100.00;95044.13;5058567;28;20051;-84
2021/12/22 08:17:05;;;;;;;133.07;51.65;;;;;;;2.52;100.00;95047.88;5042166;28;20035;-84
2021/12/22 08:19:31;;;;;;;136.40;51.90;;;;;;;2.44;100.00;95045.50;5041787;28;20025;-84
2021/12/22 08:21:57;;;;;;;139.30;50.60;;;;;;;2.61;100.00;95044.13;5058017;28;20035;-84
2021/12/22 08:24:23;;;;;;;119.65;50.92;;;;;;;2.43;100.00;95049.88;5058197;28;20028;-84
2021/12/22 08:26:49;;;;;;;136.68;53.05;;;;;;;1.98;100.00;95050.41;5058436;28;20028;-84
2021/12/22 08:29:15;;;;;;;139.38;53.92;;;;;;;1.79;100.00;95052.78;5058336;28;20127;-84
2021/12/22 08:31:40;;;;;;;144.30;54.42;;;;;;;1.69;100.00;95063.47;5041746;28;20036;-84
2021/12/22 08:34:08;;;;;;;134.05;52.55;;;;;;;1.94;100.00;95062.16;5062630;28;20025;-84
2021/12/22 08:39:18;;;;;;;140.32;52.83;;;;;;;1.88;100.00;95062.94;5065109;28;20436;-84
2021/12/22 08:41:47;;;;;;;131.23;50.85;;;;;;;2.21;100.00;95062.97;5061745;28;20028;-84
2021/12/22 08:44:15;;;;;;;133.82;51.97;;;;;;;2.33;100.00;95068.38;5046501;28;20055;-84
2021/12/22 08:46:42;;;;;;;136.40;52.63;;;;;;;2.28;100.00;95063.00;5062149;28;20425;-84
2021/12/22 08:49:08;;;;;;;131.40;51.58;;;;;;;2.08;100.00;95063.78;5062048;28;20016;-84
2021/12/22 08:51:33;;;;;;;137.18;54.28;;;;;;;2.33;100.00;95078.72;5045506;28;20341;-84
2021/12/22 08:54:00;;;;;;;138.27;51.58;;;;;;;2.30;100.00;95080.91;5045540;28;20028;-84
2021/12/22 08:56:26;;;;;;;142.55;55.22;;;;;;;2.45;100.00;95076.34;5062348;28;20326;-84
2021/12/22 08:58:54;;;;;;;133.57;51.92;;;;;;;2.54;100.00;95084.69;5061934;28;20036;-84
2021/12/22 09:01:22;;;;;;;145.98;55.13;;;;;;;2.30;100.00;95081.72;5061802;28;20024;-84
2021/12/22 09:03:48;;;;;;;140.70;53.50;;;;;;;2.60;100.00;95086.50;5079816;28;20059;-84
2021/12/22 09:06:14;;;;;;;137.57;53.60;;;;;;;2.44;100.00;95092.03;5061935;28;20070;-84
2021/12/22 09:08:41;;;;;;;137.43;50.22;;;;;;;2.44;100.00;95098.03;5061937;28;20082;-84
2021/12/22 09:11:06;;;;;;;141.90;53.90;;;;;;;2.37;100.00;95100.59;5044862;28;20020;-84
2021/12/22 09:13:32;;;;;;;134.15;52.50;;;;;;;2.50;100.00;95097.22;5061784;28;20038;-84
2021/12/22 09:15:57;;;;;;;124.55;49.88;;;;;;;2.67;100.00;95102.03;5045172;28;20051;-84
2021/12/22 09:18:23;;;;;;;131.63;52.42;;;;;;;2.71;100.00;95105.00;5045240;28;20428;-84
2021/12/22 09:20:48;;;;;;;127.80;48.70;;;;;;;2.73;100.00;95106.41;5062068;28;20020;-84
2021/12/22 09:23:14;;;;;;;125.43;47.25;;;;;;;2.61;100.00;95103.63;5060842;28;20024;-84
2021/12/22 09:25:41;;;;;;;114.90;45.63;;;;;;;2.81;100.00;95108.81;5061500;28;20029;-84
2021/12/22 09:28:07;;;;;;;127.20;47.50;;;;;;;2.88;100.00;95111.38;5061427;28;20020;-84
2021/12/22 09:30:36;;;;;;;124.40;47.42;;;;;;;3.15;100.00;95115.72;5061550;28;20086;-84
2021/12/22 09:33:07;;;;;;;122.68;49.53;;;;;;;2.97;100.00;95107.59;5061200;28;20020;-84
2021/12/22 09:35:33;;;;;;;128.00;48.58;;;;;;;2.61;100.00;95103.63;5061379;28;20028;-84
2021/12/22 09:37:59;;;;;;;108.78;44.10;;;;;;;3.21;100.00;95113.13;5061291;28;20429;-84
2021/12/22 09:40:24;;;;;;;107.68;39.95;;;;;;;3.20;100.00;95118.50;5061191;28;20069;-84
2021/12/22 09:42:50;;;;;;;117.93;46.22;;;;;;;3.34;100.00;95116.69;5078590;28;20025;-84
2021/12/22 09:45:18;;;;;;;100.78;41.85;;;;;;;3.20;100.00;95115.91;5060596;28;20055;-84
2021/12/22 09:48:01;;;;;;;95.78;40.83;;;;;;;3.11;100.00;95117.94;5061321;28;20016;-84
2021/12/22 09:50:47;;;;;;;95.32;38.83;;;;;;;2.84;100.00;95120.53;5063706;28;20024;-84
2021/12/22 09:53:14;;;;;;;100.25;38.47;;;;;;;2.82;100.00;95110.41;5063275;28;20028;-84
2021/12/22 09:55:39;;;;;;;104.35;41.45;;;;;;;2.89;100.00;95110.41;5061041;28;20020;-84
2021/12/22 09:58:05;;;;;;;93.82;38.10;;;;;;;3.21;100.00;95107.97;5061024;28;20031;-84
2021/12/22 10:00:34;;;;;;;101.05;37.90;;;;;;;2.88;100.00;95103.63;5044863;28;20024;-84
2021/12/22 10:03:00;;;;;;;105.05;38.63;;;;;;;2.96;100.00;95108.56;5060804;28;20024;-84
2021/12/22 10:05:25;;;;;;;100.35;36.75;;;;;;;3.18;100.00;95108.38;5043844;28;20328;-84
2021/12/22 10:08:10;;;;;;;88.25;34.00;;;;;;;2.90;100.00;95106.81;5060888;28;20070;-84
2021/12/22 10:10:43;;;;;;;78.28;30.40;;;;;;;3.27;100.00;95108.13;5060642;28;20162;-84
2021/12/22 10:13:12;;;;;;;74.60;31.05;;;;;;;3.33;100.00;95104.75;5060332;28;20029;-84
2021/12/22 10:15:40;;;;;;;78.07;30.52;;;;;;;3.41;100.00;95101.16;5044054;28;20024;-84
2021/12/22 10:18:14;;;;;;;90.35;33.33;;;;;;;3.09;100.00;95099.22;5044293;28;20032;-84
2021/12/22 10:20:41;;;;;;;86.15;33.40;;;;;;;2.96;100.00;95105.22;5060532;28;20035;-84
2021/12/22 10:23:28;;;;;;;85.63;32.47;;;;;;;3.23;100.00;95097.41;5043226;28;20033;-84
2021/12/22 10:26:03;;;;;;;76.22;30.90;;;;;;;3.57;100.00;95100.69;5060295;28;20016;-84
2021/12/22 10:28:30;;;;;;;84.57;33.47;;;;;;;3.49;100.00;95104.31;5060762;28;20103;-84
2021/12/22 10:30:58;;;;;;;84.40;34.70;;;;;;;3.57;100.00;95099.88;5043931;28;20031;-84
2021/12/22 10:33:26;;;;;;;76.43;33.75;;;;;;;3.61;100.00;95106.28;5044367;28;20024;-84
2021/12/22 10:35:54;;;;;;;95.22;36.60;;;;;;;3.31;100.00;95101.56;5043117;28;20036;-84
2021/12/22 10:38:24;;;;;;;81.90;33.92;;;;;;;3.63;100.00;95106.84;5060159;28;20069;-84
2021/12/22 10:41:09;;;;;;;90.70;35.63;;;;;;;3.76;100.00;95099.03;5060249;28;20044;-84
2021/12/22 10:43:40;;;;;;;90.55;34.03;;;;;;;3.48;100.00;95102.72;5043752;28;20032;-84
2021/12/22 10:46:06;;;;;;;82.38;33.67;;;;;;;3.35;100.00;95105.34;5043549;28;20025;-84
2021/12/22 10:51:30;;;;;;;68.93;27.55;;;;;;;2.72;100.00;95104.00;5062223;28;20035;-84
2021/12/22 10:53:58;;;;;;;79.95;28.60;;;;;;;3.38;100.00;95102.34;5060278;28;20024;-84
2021/12/22 10:56:31;;;;;;;74.18;30.63;;;;;;;3.61;100.00;95098.50;5058675;28;20025;-84
2021/12/22 10:59:02;;;;;;;65.60;24.63;;;;;;;3.30;100.00;95089.59;5059758;28;20480;-84
2021/12/22 11:01:28;;;;;;;60.53;22.45;;;;;;;3.74;100.00;95095.03;5059610;28;20032;-84
2021/12/22 11:04:02;;;;;;;60.13;24.27;;;;;;;3.50;100.00;95094.72;5059626;28;20035;-84
2021/12/22 11:06:30;;;;;;;57.15;24.50;;;;;;;3.27;100.00;95088.22;5044572;28;20094;-84
2021/12/22 11:09:13;;;;;;;58.25;23.05;;;;;;;3.78;100.00;95091.03;5059919;28;20021;-84
2021/12/22 11:11:56;;;;;;;54.72;21.08;;;;;;;3.45;100.00;95099.72;5059668;28;20394;-84
2021/12/22 11:14:22;;;;;;;57.03;21.13;;;;;;;3.49;100.00;95098.31;5059504;28;20031;-84
2021/12/22 11:17:07;;;;;;;50.35;20.73;;;;;;;3.79;100.00;95097.81;5077208;28;20032;-84
2021/12/22 11:19:52;;;;;;;53.55;21.20;;;;;;;3.84;100.00;95085.03;5077042;28;20051;-84
2021/12/22 11:22:22;;;;;;;49.17;19.30;;;;;;;3.73;100.00;95093.47;5076567;28;20021;-84
2021/12/22 11:24:50;;;;;;;45.80;17.83;;;;;;;3.56;100.00;95096.50;5043884;28;20459;-84
2021/12/22 11:27:21;;;;;;;34.35;13.88;;;;;;;3.20;100.00;95095.19;5059200;28;20021;-84
2021/12/22 11:29:51;;;;;;;37.08;14.00;;;;;;;3.11;100.00;95092.03;5042594;28;20375;-84
2021/12/22 11:32:20;;;;;;;35.90;15.02;;;;;;;3.57;100.00;95089.53;5042590;28;20341;-84
2021/12/22 11:34:51;;;;;;;53.10;20.17;;;;;;;3.60;100.00;95079.53;5076947;28;20024;-84
2021/12/22 11:37:17;;;;;;;46.38;18.35;;;;;;;3.62;100.00;95082.72;5042576;28;20028;-84
2021/12/22 11:39:43;;;;;;;45.08;16.75;;;;;;;3.36;100.00;95089.56;5042004;28;20024;-84
2021/12/22 11:42:10;;;;;;;45.20;16.77;;;;;;;3.87;100.00;95084.63;5058606;28;20111;-84
2021/12/22 11:44:38;;;;;;;39.47;17.38;;;;;;;4.24;100.00;95091.81;5042663;28;20020;-84
2021/12/22 11:47:08;;;;;;;55.72;21.92;;;;;;;4.71;100.00;95083.69;5076744;28;20314;-84
2021/12/22 11:49:34;;;;;;;46.88;20.65;;;;;;;4.95;100.00;95082.09;5058707;28;20046;-84
2021/12/22 11:52:46;;;;;;;54.15;22.38;;;;;;;4.82;100.00;95082.22;5058515;28;20123;-84
2021/12/22 11:55:15;;;;;;;58.70;23.75;;;;;;;4.88;100.00;95083.97;5045436;28;20040;-84
2021/12/22 11:57:42;;;;;;;57.53;25.50;;;;;;;4.76;100.00;95089.03;5058821;28;20036;-84
2021/12/22 12:00:29;;;;;;;63.70;27.90;;;;;;;4.52;100.00;95081.06;5041875;28;20036;-84
2021/12/22 12:02:56;;;;;;;59.47;25.52;;;;;;;4.60;100.00;95069.63;5058432;28;20028;-84
2021/12/22 12:05:24;;;;;;;65.28;28.10;;;;;;;4.44;100.00;95070.91;5041763;28;20571;-84
2021/12/22 12:08:02;;;;;;;69.38;29.10;;;;;;;4.41;100.00;95070.53;5058140;28;20016;-84
2021/12/22 12:10:40;;;;;;;69.18;28.20;;;;;;;4.38;100.00;95069.19;5042428;28;20029;-84
2021/12/22 12:22:09;;;;;;;77.05;30.88;;;;;;;4.20;100.00;95060.28;5075865;28;20415;-84
2021/12/22 12:25:02;;;;;;;81.90;32.38;;;;;;;4.15;100.00;95059.34;5042447;28;20035;-83
2021/12/22 12:27:51;;;;;;;80.05;31.38;;;;;;;4.27;100.00;95057.66;5042375;28;20447;-84
2021/12/22 12:30:37;;;;;;;76.93;32.60;;;;;;;4.38;100.00;95053.63;5047235;28;20227;-84
2021/12/22 12:33:05;;;;;;;80.30;33.28;;;;;;;3.53;100.00;95053.66;5040927;28;20438;-84
2021/12/22 12:35:33;;;;;;;98.68;35.85;;;;;;;4.15;100.00;95043.78;5022347;28;20033;-84
2021/12/22 12:38:12;;;;;;;95.68;36.00;;;;;;;4.01;100.00;95051.63;5038580;28;20043;-84
2021/12/22 12:41:11;;;;;;;96.30;36.90;;;;;;;3.75;100.00;95048.19;5039045;28;20040;-83
2021/12/22 12:46:24;;;;;;;90.43;35.85;;;;;;;4.13;100.00;95056.16;5056161;28;20028;-84
2021/12/22 12:49:05;;;;;;;87.38;33.92;;;;;;;3.98;100.00;95054.66;5038540;28;20516;-84
2021/12/22 12:51:40;;;;;;;81.20;31.70;;;;;;;4.04;100.00;95050.44;5055604;28;20032;-83
2021/12/22 12:54:25;;;;;;;76.18;29.65;;;;;;;3.91;100.00;95052.09;5022286;28;20033;-83
2021/12/22 12:56:52;;;;;;;70.53;29.67;;;;;;;4.19;100.00;95050.16;5022081;28;20422;-84
2021/12/22 12:59:26;;;;;;;76.95;30.58;;;;;;;4.37;100.00;95052.00;5038579;28;20040;-84
2021/12/22 13:01:51;;;;;;;71.00;29.98;;;;;;;4.29;100.00;95055.66;5038159;28;20028;-83
2021/12/22 13:04:26;;;;;;;71.18;28.60;;;;;;;4.44;100.00;95057.13;5044897;28;20456;-84
2021/12/22 13:07:19;;;;;;;76.63;28.23;;;;;;;4.25;100.00;95051.88;5022405;28;20409;-83
2021/12/22 13:10:09;;;;;;;71.20;28.17;;;;;;;4.48;100.00;95055.72;5038287;28;20036;-83
2021/12/22 13:17:55;;;;;;;76.18;30.92;;;;;;;4.22;100.00;95045.31;5060845;28;20043;-84
2021/12/22 13:20:28;;;;;;;80.25;31.10;;;;;;;4.57;100.00;95054.44;5060731;28;20032;-84
2021/12/22 13:22:55;;;;;;;73.32;30.27;;;;;;;4.16;100.00;95046.16;5061514;28;20036;-83
2021/12/22 13:25:27;;;;;;;71.32;28.55;;;;;;;4.36;100.00;95038.25;5045325;28;20040;-83
2021/12/22 13:28:04;;;;;;;210.38;97.40;;;;;;;4.35;100.00;95039.25;5061685;28;20675;-84
2021/12/22 13:30:33;;;;;;;123.55;53.20;;;;;;;4.69;100.00;95045.97;5054046;28;20044;-84
2021/12/22 13:33:02;;;;;;;150.57;65.13;;;;;;;4.33;100.00;95051.66;5040772;28;20029;-84
2021/12/22 13:35:44;;;;;;;179.02;78.13;;;;;;;4.02;100.00;95040.28;5058341;28;20032;-84
2021/12/22 13:38:20;;;;;;;91.95;41.13;;;;;;;4.25;100.00;95044.09;5059199;28;20112;-84
2021/12/22 13:41:01;;;;;;;86.65;36.50;;;;;;;4.01;100.00;95045.66;5057905;28;20036;-84
2021/12/22 13:43:45;;;;;;;88.82;41.53;;;;;;;4.24;100.00;95045.91;5058248;28;20032;-84